Time;durP1;ratioP1;P1;durP2;ratioP2;P2;SDS_P1;SDS_P2;PMS_P1;PMS_P2;Temp;Humidity;BMP_temperature;BMP_pressure;BME280_temperature;BME280_humidity;BME280_pressure;Samples;Min_cycle;Max_cycle;Signal;HPM_P1;HPM_P2
2021/12/09 00:01:43;;;;;;;38.88;14.78;;;;;;;1.62;89.04;98521.18;1606264;88;21229;-80
2021/12/09 00:04:13;;;;;;;33.02;14.68;;;;;;;1.58;89.00;98528.84;1586816;89;21060;-80
2021/12/09 00:06:44;;;;;;;35.17;15.38;;;;;;;1.54;88.92;98528.41;1585463;89;21002;-79
2021/12/09 00:09:18;;;;;;;38.65;15.48;;;;;;;1.52;88.89;98532.68;1586418;89;21024;-79
2021/12/09 00:11:47;;;;;;;27.65;13.28;;;;;;;1.53;89.04;98530.56;1586559;89;21193;-79
2021/12/09 00:14:22;;;;;;;33.00;13.43;;;;;;;1.56;89.04;98531.83;1586642;89;21032;-80
2021/12/09 00:16:50;;;;;;;35.25;14.40;;;;;;;1.57;89.07;98526.27;1588648;89;21081;-79
2021/12/09 00:19:17;;;;;;;31.87;13.75;;;;;;;1.56;89.07;98522.02;1609048;88;21048;-78
2021/12/09 00:21:43;;;;;;;30.62;13.98;;;;;;;1.62;89.19;98524.59;1616193;88;21393;-80
2021/12/09 00:24:11;;;;;;;38.48;13.85;;;;;;;1.66;89.31;98527.58;1587728;89;21021;-81
2021/12/09 00:26:38;;;;;;;34.58;15.18;;;;;;;1.69;89.17;98531.84;1591386;89;21017;-80
2021/12/09 00:29:07;;;;;;;30.27;13.08;;;;;;;1.72;89.21;98532.72;1582838;89;21017;-81
2021/12/09 00:31:34;;;;;;;33.00;14.13;;;;;;;1.72;88.91;98535.27;1591471;89;21024;-81
2021/12/09 00:34:01;;;;;;;35.63;14.70;;;;;;;1.71;89.06;98538.71;1582522;89;21011;-80
2021/12/09 00:36:35;;;;;;;38.08;16.32;;;;;;;1.74;89.12;98539.13;1587955;89;21044;-81
2021/12/09 00:38:59;;;;;;;35.55;15.68;;;;;;;1.73;89.05;98533.56;1583007;89;21088;-80
2021/12/09 00:41:26;;;;;;;39.35;15.08;;;;;;;1.71;88.97;98536.14;1583903;89;21501;-81
2021/12/09 00:43:53;;;;;;;35.45;14.23;;;;;;;1.68;88.67;98534.84;1585826;89;21560;-81
2021/12/09 00:46:19;;;;;;;31.68;12.95;;;;;;;1.61;88.85;98525.86;1591981;89;21080;-81
2021/12/09 00:48:46;;;;;;;40.95;14.28;;;;;;;1.57;88.71;98534.84;1607221;89;21039;-81
2021/12/09 00:51:13;;;;;;;35.68;15.03;;;;;;;1.55;89.02;98534.38;1617707;88;21000;-81
2021/12/09 00:53:40;;;;;;;39.73;15.70;;;;;;;1.55;89.21;98525.02;1607290;88;21010;-81
2021/12/09 00:56:09;;;;;;;40.78;16.20;;;;;;;1.58;89.34;98525.44;1580728;89;21073;-82
2021/12/09 00:58:39;;;;;;;37.38;14.60;;;;;;;1.63;89.34;98535.25;1579679;89;21192;-80
2021/12/09 01:01:07;;;;;;;30.65;13.68;;;;;;;1.67;89.44;98530.59;1579795;89;21137;-79
2021/12/09 01:03:37;;;;;;;32.95;14.35;;;;;;;1.72;89.52;98534.43;1601126;88;21186;-81
2021/12/09 01:06:04;;;;;;;31.33;13.72;;;;;;;1.78;89.64;98537.84;1605739;88;21010;-81
2021/12/09 01:08:30;;;;;;;34.45;13.93;;;;;;;1.87;89.87;98538.30;1607761;89;21572;-81
2021/12/09 01:10:57;;;;;;;26.68;12.65;;;;;;;1.97;89.77;98540.45;1598295;88;21045;-81
2021/12/09 01:13:23;;;;;;;36.10;14.73;;;;;;;2.04;89.55;98539.58;1607960;88;21185;-83
2021/12/09 01:15:50;;;;;;;36.15;15.00;;;;;;;2.09;89.37;98533.16;1607852;88;21065;-81
2021/12/09 01:18:16;;;;;;;33.42;14.73;;;;;;;2.13;89.10;98531.89;1607950;88;21580;-81
2021/12/09 01:20:43;;;;;;;30.20;14.35;;;;;;;2.12;88.87;98534.02;1607766;88;21072;-81
2021/12/09 01:23:09;;;;;;;26.05;13.35;;;;;;;2.14;88.89;98529.73;1607781;88;21078;-81
2021/12/09 01:25:37;;;;;;;27.85;11.75;;;;;;;2.13;88.56;98520.76;1608043;88;21077;-82
2021/12/09 01:28:18;;;;;;;26.55;11.75;;;;;;;2.13;88.51;98520.76;1606748;89;21072;-80
2021/12/09 01:30:39;;;;;;;25.68;11.70;;;;;;;2.14;88.41;98530.17;1605840;88;21029;-80
2021/12/09 01:33:06;;;;;;;29.57;11.78;;;;;;;2.10;88.16;98537.01;1606861;88;21048;-80
2021/12/09 01:35:35;;;;;;;28.67;13.40;;;;;;;2.06;88.19;98541.71;1608101;89;21064;-81
2021/12/09 01:38:11;;;;;;;28.35;10.63;;;;;;;2.02;88.08;98547.70;1607978;88;21086;-81
2021/12/09 01:40:33;;;;;;;26.55;10.55;;;;;;;1.97;88.15;98535.32;1605947;88;21516;-79
2021/12/09 01:43:00;;;;;;;21.50;9.75;;;;;;;1.94;87.97;98528.89;1607672;88;21045;-80
2021/12/09 01:45:27;;;;;;;23.18;9.70;;;;;;;1.92;88.02;98525.04;1607778;89;21055;-81
2021/12/09 01:47:54;;;;;;;29.45;11.35;;;;;;;1.93;88.26;98520.36;1606969;88;21060;-79
2021/12/09 01:50:22;;;;;;;23.60;9.85;;;;;;;1.96;88.29;98510.52;1604984;88;21055;-81
2021/12/09 01:52:49;;;;;;;24.07;10.38;;;;;;;2.02;88.43;98496.85;1606387;89;21007;-83
2021/12/09 01:55:18;;;;;;;28.00;9.98;;;;;;;1.96;88.25;98496.42;1594944;89;20997;-83
2021/12/09 01:57:50;;;;;;;27.50;10.72;;;;;;;1.83;88.18;98503.67;1577259;91;21363;-81
2021/12/09 02:00:22;;;;;;;29.67;12.35;;;;;;;1.79;88.42;98511.38;1606701;88;21107;-79
2021/12/09 02:02:50;;;;;;;28.32;12.33;;;;;;;1.75;88.47;98515.20;1606320;87;21089;-78
2021/12/09 02:05:17;;;;;;;30.92;12.65;;;;;;;1.75;88.54;98526.73;1606170;88;21521;-80
2021/12/09 02:07:44;;;;;;;26.00;12.07;;;;;;;1.72;88.68;98519.90;1606055;88;21033;-81
2021/12/09 02:10:15;;;;;;;28.67;12.58;;;;;;;1.73;88.89;98526.75;1581127;89;21558;-81
2021/12/09 02:12:42;;;;;;;30.30;12.88;;;;;;;1.76;88.88;98525.89;1579970;89;21038;-80
2021/12/09 02:15:10;;;;;;;26.52;11.48;;;;;;;1.75;88.96;98531.85;1586457;89;21347;-80
2021/12/09 02:17:36;;;;;;;26.42;11.90;;;;;;;1.74;89.03;98533.57;1590138;89;21615;-79
2021/12/09 02:20:07;;;;;;;25.92;11.63;;;;;;;1.72;88.97;98532.72;1583492;89;21061;-81
2021/12/09 02:22:34;;;;;;;31.85;11.63;;;;;;;1.73;88.44;98533.56;1580870;89;21039;-81
2021/12/09 02:25:01;;;;;;;26.35;11.70;;;;;;;1.69;88.50;98530.16;1606374;88;21071;-81
2021/12/09 02:27:27;;;;;;;27.13;11.00;;;;;;;1.69;89.04;98542.09;1600452;89;21036;-81
2021/12/09 02:29:55;;;;;;;32.20;12.10;;;;;;;1.74;88.72;98543.82;1611289;88;20999;-81
2021/12/09 02:32:23;;;;;;;26.23;11.03;;;;;;;1.75;88.96;98539.54;1617326;88;21028;-80
2021/12/09 02:34:49;;;;;;;23.50;10.48;;;;;;;1.80;89.02;98540.41;1610680;88;21014;-81
2021/12/09 02:37:16;;;;;;;27.42;11.78;;;;;;;1.83;88.92;98530.59;1596363;89;21052;-80
2021/12/09 02:39:44;;;;;;;33.80;11.73;;;;;;;1.82;88.84;98524.61;1612325;88;21004;-81
2021/12/09 02:42:12;;;;;;;23.40;11.00;;;;;;;1.83;88.73;98520.33;1585550;89;21059;-79
2021/12/09 02:44:40;;;;;;;23.07;10.50;;;;;;;1.85;88.89;98519.50;1587454;89;21076;-80
2021/12/09 02:47:07;;;;;;;24.82;11.88;;;;;;;1.87;88.90;98528.45;1584753;89;21055;-79
2021/12/09 02:49:34;;;;;;;27.60;11.00;;;;;;;1.89;88.69;98523.78;1589556;89;21033;-81
2021/12/09 02:52:06;;;;;;;22.42;10.60;;;;;;;1.90;88.34;98525.47;1581744;89;21095;-81
2021/12/09 02:54:33;;;;;;;26.87;12.28;;;;;;;1.88;88.40;98520.77;1584856;89;21041;-80
2021/12/09 02:57:04;;;;;;;23.80;10.90;;;;;;;1.85;88.11;98516.94;1579659;89;21065;-81
2021/12/09 02:59:32;;;;;;;25.92;9.78;;;;;;;1.79;88.09;98515.63;1585252;89;21640;-80
2021/12/09 03:02:03;;;;;;;22.95;9.48;;;;;;;1.76;87.95;98518.20;1574152;89;21587;-78
2021/12/09 03:04:48;;;;;;;27.70;10.38;;;;;;;1.64;88.02;98513.91;1606532;88;21041;-80
2021/12/09 03:07:24;;;;;;;23.92;11.08;;;;;;;1.60;88.25;98510.92;1603089;88;21089;-79
2021/12/09 03:09:56;;;;;;;24.57;10.48;;;;;;;1.61;88.27;98506.20;1606659;88;21032;-78
2021/12/09 03:12:33;;;;;;;29.92;12.40;;;;;;;1.61;88.29;98502.36;1606536;88;21495;-80
2021/12/09 03:15:02;;;;;;;28.70;12.20;;;;;;;1.60;88.55;98512.20;1603225;88;21183;-80
2021/12/09 03:17:28;;;;;;;27.75;11.88;;;;;;;1.57;88.64;98510.91;1606587;88;21059;-79
2021/12/09 03:19:56;;;;;;;27.65;10.98;;;;;;;1.56;88.88;98506.65;1599791;89;21067;-79
2021/12/09 03:22:23;;;;;;;24.40;10.75;;;;;;;1.59;88.90;98513.04;1604918;88;21149;-78
2021/12/09 03:24:50;;;;;;;24.27;10.25;;;;;;;1.60;88.84;98498.11;1606844;88;21083;-80
2021/12/09 03:27:16;;;;;;;25.72;10.85;;;;;;;1.65;88.98;98500.67;1606556;88;21565;-80
2021/12/09 03:29:43;;;;;;;27.77;11.78;;;;;;;1.68;88.91;98507.94;1603253;88;21042;-79
2021/12/09 03:32:14;;;;;;;23.73;12.28;;;;;;;1.73;88.83;98514.34;1606606;88;21029;-80
2021/12/09 03:34:43;;;;;;;27.27;12.03;;;;;;;1.66;88.74;98506.23;1603167;88;21644;-80
2021/12/09 03:37:15;;;;;;;28.62;11.73;;;;;;;1.64;88.52;98501.10;1607531;88;21037;-81
2021/12/09 03:39:43;;;;;;;26.80;12.03;;;;;;;1.53;88.65;98498.54;1603320;88;21039;-79
2021/12/09 03:42:13;;;;;;;24.07;11.35;;;;;;;1.47;88.69;98497.22;1607658;88;21032;-80
2021/12/09 03:44:42;;;;;;;25.80;11.05;;;;;;;1.39;88.87;98497.63;1603996;88;21000;-80
2021/12/09 03:47:13;;;;;;;25.97;10.68;;;;;;;1.37;88.92;98492.94;1606648;88;21027;-79
2021/12/09 03:49:42;;;;;;;22.90;10.08;;;;;;;1.38;88.54;98498.06;1603096;88;21054;-79
2021/12/09 03:52:11;;;;;;;28.17;11.97;;;;;;;1.36;88.43;98500.20;1606635;88;22051;-79
2021/12/09 03:54:38;;;;;;;25.60;11.38;;;;;;;1.30;88.53;98502.32;1602783;88;21039;-79
2021/12/09 03:57:06;;;;;;;26.37;11.68;;;;;;;1.32;88.73;98501.05;1596368;88;21015;-79
2021/12/09 03:59:33;;;;;;;25.23;10.00;;;;;;;1.33;88.64;98497.63;1606347;89;21152;-79
2021/12/09 04:01:59;;;;;;;27.42;10.80;;;;;;;1.33;88.95;98495.06;1603817;88;21498;-81
2021/12/09 04:04:26;;;;;;;22.82;10.30;;;;;;;1.32;89.01;98485.25;1601319;88;21031;-80
2021/12/09 04:06:53;;;;;;;24.52;10.78;;;;;;;1.32;88.96;98483.13;1600328;88;21054;-81
2021/12/09 04:09:22;;;;;;;20.82;9.83;;;;;;;1.35;88.82;98483.99;1611596;88;21064;-80
2021/12/09 04:11:50;;;;;;;20.65;8.98;;;;;;;1.26;88.82;98478.84;1574055;91;21221;-79
2021/12/09 04:14:20;;;;;;;24.10;10.15;;;;;;;1.29;88.88;98490.35;1611346;88;21033;-81
2021/12/09 04:16:48;;;;;;;23.20;10.18;;;;;;;1.33;88.89;98497.22;1579808;89;21210;-79
2021/12/09 04:19:15;;;;;;;27.62;11.45;;;;;;;1.35;88.74;98499.77;1587459;89;21028;-81
2021/12/09 04:21:43;;;;;;;24.87;9.80;;;;;;;1.38;88.73;98504.47;1580985;89;21053;-81
2021/12/09 04:24:13;;;;;;;27.55;10.53;;;;;;;1.39;88.53;98498.91;1575432;91;21554;-80
2021/12/09 04:26:45;;;;;;;25.72;10.08;;;;;;;1.36;88.29;98488.69;1600206;90;21538;-80
2021/12/09 04:29:12;;;;;;;27.20;9.73;;;;;;;1.34;88.25;98489.11;1600808;90;21046;-80
2021/12/09 04:31:40;;;;;;;26.27;10.35;;;;;;;1.33;88.16;98489.94;1600775;90;21046;-78
2021/12/09 04:34:06;;;;;;;23.25;9.58;;;;;;;1.30;88.30;98482.27;1600377;89;21066;-81
2021/12/09 04:36:34;;;;;;;26.75;12.40;;;;;;;1.31;88.26;98482.28;1606982;89;21093;-80
2021/12/09 04:39:03;;;;;;;30.72;15.32;;;;;;;1.34;88.19;98480.98;1606322;89;21041;-78
2021/12/09 04:41:29;;;;;;;38.42;18.90;;;;;;;1.36;88.35;98485.69;1606390;89;21062;-79
2021/12/09 04:43:56;;;;;;;32.17;15.98;;;;;;;1.41;88.08;98485.69;1606536;89;21042;-82
2021/12/09 04:46:22;;;;;;;23.67;11.28;;;;;;;1.37;88.19;98479.73;1606561;89;21074;-79
2021/12/09 04:48:49;;;;;;;19.98;10.32;;;;;;;1.42;88.17;98469.48;1606591;89;21046;-80
2021/12/09 04:51:15;;;;;;;22.80;11.57;;;;;;;1.44;88.20;98473.33;1607125;89;21041;-79
2021/12/09 04:53:43;;;;;;;30.27;12.18;;;;;;;1.35;87.82;98481.44;1607064;89;21066;-81
2021/12/09 04:56:09;;;;;;;23.15;10.43;;;;;;;1.35;87.97;98477.59;1578736;89;21042;-81
2021/12/09 04:58:36;;;;;;;22.52;10.72;;;;;;;1.33;87.88;98472.89;1577411;88;21082;-84
2021/12/09 05:01:06;;;;;;;21.80;11.12;;;;;;;1.34;87.71;98474.58;1574600;90;21244;-79
2021/12/09 05:03:33;;;;;;;21.17;8.70;;;;;;;1.27;87.71;98479.25;1566600;90;21120;-81
2021/12/09 05:06:00;;;;;;;21.15;10.18;;;;;;;1.24;87.67;98476.70;1588087;90;21085;-81
2021/12/09 05:08:31;;;;;;;20.62;9.48;;;;;;;1.25;87.69;98480.11;1588119;90;21053;-80
2021/12/09 05:11:10;;;;;;;27.85;11.83;;;;;;;1.25;87.70;98481.39;1587987;90;21231;-80
2021/12/09 05:13:37;;;;;;;23.35;11.03;;;;;;;1.24;87.71;98486.95;1587458;90;21091;-78
2021/12/09 05:16:07;;;;;;;25.88;11.25;;;;;;;1.26;87.81;98489.08;1587958;90;21062;-80
2021/12/09 05:18:38;;;;;;;26.35;11.00;;;;;;;1.30;87.88;98498.48;1588088;90;21538;-79
2021/12/09 05:21:08;;;;;;;21.62;9.23;;;;;;;1.35;87.89;98490.39;1588751;90;21058;-85
2021/12/09 05:23:36;;;;;;;22.58;10.53;;;;;;;1.37;87.73;98477.56;1591091;90;21534;-80
2021/12/09 05:26:04;;;;;;;19.10;8.13;;;;;;;1.35;87.63;98472.88;1591028;90;21054;-81
2021/12/09 05:28:35;;;;;;;22.17;10.00;;;;;;;1.38;87.77;98475.45;1587945;90;21082;-79
2021/12/09 05:33:48;;;;;;;21.45;10.93;;;;;;;1.38;87.47;98481.42;1587732;90;21046;-79
2021/12/09 05:36:17;;;;;;;21.85;10.10;;;;;;;1.41;87.63;98497.64;1615721;89;21140;-79
2021/12/09 05:38:44;;;;;;;20.80;9.40;;;;;;;1.38;86.71;98499.78;1591221;90;21093;-80
2021/12/09 05:41:11;;;;;;;28.55;10.53;;;;;;;1.32;86.89;98498.49;1587647;90;21629;-78
2021/12/09 05:43:39;;;;;;;32.63;14.20;;;;;;;1.32;87.18;98512.14;1612314;89;21601;-79
2021/12/09 05:46:05;;;;;;;23.20;10.55;;;;;;;1.33;87.36;98511.31;1618476;88;21073;-81
2021/12/09 05:48:32;;;;;;;23.65;10.03;;;;;;;1.36;87.36;98511.30;1591939;90;21552;-82
2021/12/09 05:50:59;;;;;;;21.05;10.03;;;;;;;1.39;87.36;98517.72;1591105;89;21843;-80
2021/12/09 05:53:25;;;;;;;27.02;11.90;;;;;;;1.34;87.49;98508.31;1591318;90;21068;-80
2021/12/09 05:55:52;;;;;;;28.60;11.15;;;;;;;1.41;87.63;98513.02;1591122;89;21080;-80
2021/12/09 05:58:25;;;;;;;21.77;10.75;;;;;;;1.41;87.80;98511.30;1591351;90;21041;-79
2021/12/09 06:00:53;;;;;;;27.13;12.43;;;;;;;1.45;87.67;98514.73;1591081;89;21088;-80
2021/12/09 06:03:21;;;;;;;29.32;13.45;;;;;;;1.45;87.54;98508.33;1587904;89;21089;-79
2021/12/09 06:05:51;;;;;;;30.32;12.18;;;;;;;1.50;87.65;98509.20;1603368;89;21078;-80
2021/12/09 06:08:19;;;;;;;42.40;15.08;;;;;;;1.56;87.70;98516.89;1606991;89;21108;-79
2021/12/09 06:10:46;;;;;;;40.75;13.58;;;;;;;1.52;87.49;98511.34;1601898;89;21180;-79
2021/12/09 06:13:13;;;;;;;35.20;13.98;;;;;;;1.53;87.45;98510.47;1631429;88;21031;-79
2021/12/09 06:15:41;;;;;;;33.38;12.70;;;;;;;1.55;87.46;98506.20;1633992;87;21184;-80
2021/12/09 06:18:07;;;;;;;31.23;12.20;;;;;;;1.52;87.40;98506.22;1617417;87;21559;-81
2021/12/09 06:20:34;;;;;;;25.85;9.88;;;;;;;1.55;87.37;98517.33;1607553;88;20990;-80
2021/12/09 06:23:01;;;;;;;33.13;13.40;;;;;;;1.56;87.55;98525.86;1607553;88;21451;-80
2021/12/09 06:25:27;;;;;;;28.30;13.22;;;;;;;1.53;87.34;98525.84;1604226;88;21045;-80
2021/12/09 06:27:57;;;;;;;25.23;10.80;;;;;;;1.49;87.67;98531.41;1607834;88;21034;-80
2021/12/09 06:30:24;;;;;;;28.90;12.15;;;;;;;1.49;87.57;98532.69;1603353;88;21026;-78
2021/12/09 06:32:51;;;;;;;26.23;11.60;;;;;;;1.50;87.42;98534.82;1606533;88;21037;-80
2021/12/09 06:35:19;;;;;;;26.95;12.07;;;;;;;1.49;87.43;98542.94;1603195;88;20998;-77
2021/12/09 06:37:48;;;;;;;28.55;10.75;;;;;;;1.52;87.72;98545.92;1582136;88;21035;-82
2021/12/09 06:40:19;;;;;;;23.45;10.88;;;;;;;1.58;87.91;98539.09;1590211;88;21566;-79
2021/12/09 06:42:47;;;;;;;28.32;12.47;;;;;;;1.64;87.82;98534.84;1599828;88;21090;-79
2021/12/09 06:45:17;;;;;;;28.38;11.35;;;;;;;1.67;87.63;98542.12;1606799;88;21024;-80
2021/12/09 06:47:44;;;;;;;25.23;11.22;;;;;;;1.72;87.83;98535.71;1603587;88;21094;-79
2021/12/09 06:50:14;;;;;;;29.37;12.03;;;;;;;1.72;87.52;98525.03;1607283;88;21021;-80
2021/12/09 06:52:41;;;;;;;27.58;11.90;;;;;;;1.76;87.71;98517.77;1603628;88;21092;-80
2021/12/09 06:55:11;;;;;;;23.73;9.45;;;;;;;1.83;87.83;98514.80;1606732;88;21033;-80
2021/12/09 06:57:38;;;;;;;23.07;9.75;;;;;;;1.83;86.73;98517.77;1604356;88;21078;-80
2021/12/09 07:00:09;;;;;;;21.27;9.50;;;;;;;1.81;86.45;98510.50;1603707;88;21104;-80
2021/12/09 07:02:35;;;;;;;20.75;8.88;;;;;;;1.85;86.66;98513.50;1600801;88;22135;-80
2021/12/09 07:05:05;;;;;;;25.08;10.58;;;;;;;1.84;86.60;98508.81;1613259;87;21069;-80
2021/12/09 07:07:32;;;;;;;29.48;12.43;;;;;;;1.85;86.24;98514.78;1620346;88;21065;-81
2021/12/09 07:09:59;;;;;;;25.92;9.63;;;;;;;1.86;85.89;98517.78;1620670;88;21608;-80
2021/12/09 07:12:25;;;;;;;23.77;9.20;;;;;;;1.82;86.00;98518.64;1612330;88;21572;-80
2021/12/09 07:14:52;;;;;;;26.52;10.25;;;;;;;1.79;85.99;98517.78;1616399;87;21609;-81
2021/12/09 07:17:20;;;;;;;26.52;10.72;;;;;;;1.74;86.12;98513.06;1616616;88;21057;-81
2021/12/09 07:19:46;;;;;;;28.12;12.53;;;;;;;1.71;86.02;98513.08;1599914;88;21034;-80
2021/12/09 07:22:13;;;;;;;25.80;10.82;;;;;;;1.73;86.21;98515.63;1609730;88;21056;-80
2021/12/09 07:24:39;;;;;;;23.65;9.28;;;;;;;1.75;86.34;98517.36;1620271;88;21071;-81
2021/12/09 07:27:07;;;;;;;23.22;8.83;;;;;;;1.79;86.13;98510.50;1612472;88;21113;-81
2021/12/09 07:29:33;;;;;;;20.70;8.20;;;;;;;1.79;85.84;98504.97;1580349;89;21016;-84
2021/12/09 07:32:00;;;;;;;24.72;8.90;;;;;;;1.84;86.08;98502.40;1614801;88;21016;-82
2021/12/09 07:34:26;;;;;;;23.20;9.60;;;;;;;1.90;85.48;98503.68;1615799;88;21099;-81
2021/12/09 07:36:53;;;;;;;24.65;10.40;;;;;;;1.97;86.22;98493.02;1621175;88;22284;-81
2021/12/09 07:39:19;;;;;;;23.15;10.78;;;;;;;1.97;86.25;98498.99;1607071;87;22192;-80
2021/12/09 07:41:46;;;;;;;22.50;9.43;;;;;;;2.01;86.12;98492.56;1613103;88;21063;-80
2021/12/09 07:44:13;;;;;;;22.20;9.58;;;;;;;1.97;85.39;98481.48;1602341;88;21114;-79
2021/12/09 07:46:42;;;;;;;19.30;7.90;;;;;;;1.91;85.78;98485.30;1574665;90;21050;-79
2021/12/09 07:49:09;;;;;;;21.33;10.05;;;;;;;1.93;85.65;98481.03;1608759;88;21050;-80
2021/12/09 07:51:35;;;;;;;23.87;9.88;;;;;;;1.88;85.62;98475.91;1620923;88;21074;-80
2021/12/09 07:54:02;;;;;;;19.27;7.85;;;;;;;1.89;85.59;98488.29;1605287;88;21052;-80
2021/12/09 07:56:29;;;;;;;16.02;7.47;;;;;;;1.92;85.60;98483.18;1608941;87;21049;-81
2021/12/09 07:58:56;;;;;;;22.87;7.87;;;;;;;1.92;85.51;98483.18;1575577;90;21078;-80
2021/12/09 08:01:22;;;;;;;20.12;7.80;;;;;;;1.90;85.30;98483.61;1607244;88;21617;-79
2021/12/09 08:03:49;;;;;;;20.97;9.38;;;;;;;1.92;85.10;98479.33;1607239;87;21019;-81
2021/12/09 08:06:20;;;;;;;15.63;7.30;;;;;;;1.97;85.26;98487.89;1611663;88;21120;-80
2021/12/09 08:08:47;;;;;;;19.73;7.97;;;;;;;1.97;85.63;98491.30;1611903;88;21043;-80
2021/12/09 08:11:14;;;;;;;23.67;8.73;;;;;;;2.03;85.60;98492.13;1614642;88;21026;-79
2021/12/09 08:13:40;;;;;;;18.87;9.03;;;;;;;2.08;85.64;98500.26;1607229;88;21022;-79
2021/12/09 08:16:07;;;;;;;30.88;9.30;;;;;;;2.14;85.98;98504.09;1574391;90;21034;-81
2021/12/09 08:18:53;;;;;;;23.67;11.15;;;;;;;2.19;85.88;98502.83;1614956;88;20994;-81
2021/12/09 08:21:03;;;;;;;24.80;9.78;;;;;;;2.22;85.89;98507.09;1585286;89;21077;-80
2021/12/09 08:23:30;;;;;;;24.63;10.75;;;;;;;2.30;85.89;98516.91;1615276;88;21652;-82
2021/12/09 08:25:57;;;;;;;20.55;9.53;;;;;;;2.36;85.66;98512.62;1587966;89;21082;-83
2021/12/09 08:28:24;;;;;;;23.47;9.75;;;;;;;2.36;84.50;98507.92;1617010;87;21035;-79
2021/12/09 08:30:52;;;;;;;18.20;9.35;;;;;;;2.38;85.25;98485.25;1602301;88;21098;-81
2021/12/09 08:33:22;;;;;;;19.00;9.35;;;;;;;2.42;85.13;98463.02;1606458;88;21081;-80
2021/12/09 08:35:49;;;;;;;18.95;9.00;;;;;;;2.37;84.70;98468.60;1611800;88;21011;-80
2021/12/09 08:38:17;;;;;;;17.95;9.08;;;;;;;2.27;84.13;98477.14;1608674;88;21545;-77
2021/12/09 08:40:45;;;;;;;20.45;9.10;;;;;;;2.30;84.73;98475.44;1607302;88;21199;-79
2021/12/09 08:43:12;;;;;;;30.45;11.18;;;;;;;2.23;84.33;98468.63;1606532;88;22701;-79
2021/12/09 08:45:40;;;;;;;27.95;11.55;;;;;;;2.24;84.89;98471.60;1601251;88;21106;-79
2021/12/09 08:48:08;;;;;;;25.32;11.10;;;;;;;2.25;85.09;98472.05;1606135;88;21590;-80
2021/12/09 08:50:35;;;;;;;21.77;10.03;;;;;;;2.32;85.01;98481.85;1613521;88;21182;-82
2021/12/09 08:53:07;;;;;;;18.90;7.58;;;;;;;2.31;84.75;98476.31;1593064;89;21036;-80
2021/12/09 08:55:35;;;;;;;22.25;8.78;;;;;;;2.32;85.12;98481.42;1607257;88;21046;-79
2021/12/09 08:58:03;;;;;;;22.22;9.53;;;;;;;2.29;84.20;98485.29;1615084;88;21057;-80
2021/12/09 09:00:32;;;;;;;15.85;7.83;;;;;;;2.32;84.10;98479.29;1607217;88;21255;-80
2021/12/09 09:02:58;;;;;;;21.87;10.23;;;;;;;2.35;84.39;98462.19;1583520;89;21080;-80
2021/12/09 09:05:26;;;;;;;23.47;10.40;;;;;;;2.41;84.49;98465.58;1600297;89;21029;-82
2021/12/09 09:07:53;;;;;;;21.23;10.40;;;;;;;2.45;83.58;98467.27;1600431;86;21104;-90
2021/12/09 09:10:25;;;;;;;16.02;8.40;;;;;;;2.51;84.26;98473.27;1628805;87;21482;-81
2021/12/09 09:12:52;;;;;;;21.97;9.03;;;;;;;2.53;84.39;98470.27;1608735;89;21089;-84
2021/12/09 09:15:22;;;;;;;17.20;9.03;;;;;;;2.53;84.30;98457.44;1611357;87;20993;-83
2021/12/09 09:17:50;;;;;;;18.90;9.08;;;;;;;2.51;83.50;98448.04;1624788;87;21049;-81
2021/12/09 09:20:21;;;;;;;24.95;9.13;;;;;;;2.49;83.54;98457.02;1628790;85;21112;-81
2021/12/09 09:22:48;;;;;;;22.37;8.85;;;;;;;2.49;83.77;98462.59;1615916;87;21075;-81
2021/12/09 09:25:22;;;;;;;17.73;8.60;;;;;;;2.42;83.26;98463.02;1603959;88;21015;-79
2021/12/09 09:27:49;;;;;;;21.30;8.98;;;;;;;2.36;82.89;98445.07;1626088;87;21040;-79
2021/12/09 09:30:19;;;;;;;24.57;9.35;;;;;;;2.39;83.46;98448.92;1612866;87;21083;-79
2021/12/09 09:32:50;;;;;;;21.30;9.73;;;;;;;2.31;83.79;98433.55;1628374;87;21026;-78
2021/12/09 09:35:18;;;;;;;25.52;9.98;;;;;;;2.34;84.11;98438.66;1622474;87;21071;-80
2021/12/09 09:37:47;;;;;;;19.70;8.75;;;;;;;2.39;84.27;98438.66;1617680;88;21063;-79
2021/12/09 09:40:27;;;;;;;23.42;8.95;;;;;;;2.38;84.23;98436.50;1624693;87;21560;-77
2021/12/09 09:43:00;;;;;;;24.20;8.45;;;;;;;2.41;84.52;98425.41;1623269;88;21127;-77
2021/12/09 09:45:24;;;;;;;26.93;9.75;;;;;;;2.36;84.60;98423.27;1600962;88;21081;-77
2021/12/09 09:47:53;;;;;;;23.02;9.65;;;;;;;2.41;84.74;98421.96;1619049;88;21008;-83
2021/12/09 09:50:20;;;;;;;17.90;8.08;;;;;;;2.41;84.47;98427.09;1599753;88;21067;-78
2021/12/09 09:52:48;;;;;;;24.05;11.00;;;;;;;2.42;84.18;98421.96;1593566;88;21142;-80
2021/12/09 09:55:20;;;;;;;21.27;9.60;;;;;;;2.40;83.87;98418.55;1592954;89;21082;-78
2021/12/09 09:57:43;;;;;;;20.52;10.15;;;;;;;2.39;84.21;98421.99;1619249;88;21074;-82
2021/12/09 10:00:12;;;;;;;23.35;10.18;;;;;;;2.41;84.31;98427.97;1618059;87;21053;-78
2021/12/09 10:02:40;;;;;;;26.12;10.72;;;;;;;2.37;83.84;98427.55;1607833;88;21055;-80
2021/12/09 10:05:08;;;;;;;21.40;9.68;;;;;;;2.32;83.67;98424.98;1592988;89;21351;-80
2021/12/09 10:07:35;;;;;;;27.77;10.08;;;;;;;2.29;83.78;98422.44;1608819;89;21028;-82
2021/12/09 10:10:08;;;;;;;21.93;8.90;;;;;;;2.26;83.93;98412.61;1602726;89;21053;-80
2021/12/09 10:12:34;;;;;;;20.27;9.20;;;;;;;2.21;83.75;98410.07;1616959;87;21063;-81
2021/12/09 10:15:01;;;;;;;23.73;9.13;;;;;;;2.18;83.94;98401.94;1622379;86;20997;-81
2021/12/09 10:17:29;;;;;;;22.00;10.38;;;;;;;2.16;83.86;98406.22;1613011;88;21046;-79
2021/12/09 10:20:02;;;;;;;21.20;8.45;;;;;;;2.09;84.21;98391.72;1619281;87;21107;-78
2021/12/09 10:22:35;;;;;;;21.30;8.40;;;;;;;2.14;84.34;98397.67;1633366;87;21087;-80
2021/12/09 10:25:10;;;;;;;20.43;9.53;;;;;;;2.19;84.67;98389.55;1605098;89;21000;-82
2021/12/09 10:27:36;;;;;;;19.62;8.93;;;;;;;2.30;84.95;98389.95;1595758;89;21517;-80
2021/12/09 10:30:17;;;;;;;19.35;8.33;;;;;;;2.42;84.65;98384.77;1615839;87;21059;-81
2021/12/09 10:32:44;;;;;;;21.90;9.25;;;;;;;2.48;84.54;98381.33;1607001;88;21659;-78
2021/12/09 10:35:16;;;;;;;22.40;10.10;;;;;;;2.55;85.15;98383.86;1622720;87;21073;-77
2021/12/09 10:37:45;;;;;;;21.15;9.60;;;;;;;2.64;84.94;98384.23;1601957;87;21047;-79
2021/12/09 10:40:20;;;;;;;18.17;8.53;;;;;;;2.68;84.85;98396.64;1619425;87;21547;-79
2021/12/09 10:42:54;;;;;;;19.90;9.58;;;;;;;2.66;83.65;98385.09;1614970;87;21566;-80
2021/12/09 10:45:28;;;;;;;25.70;9.63;;;;;;;2.63;83.61;98388.13;1617274;87;21654;-80
2021/12/09 10:56:03;;;;;;;19.70;8.78;;;;;;;2.64;82.52;98389.38;1620358;87;21052;-77
2021/12/09 10:58:34;;;;;;;22.90;8.85;;;;;;;2.63;82.75;98380.42;1618778;88;21028;-77
2021/12/09 11:01:17;;;;;;;15.38;6.42;;;;;;;2.63;83.25;98368.88;1617208;87;21050;-77
2021/12/09 11:03:49;;;;;;;18.55;8.43;;;;;;;2.65;82.49;98360.30;1594997;88;21061;-78
2021/12/09 11:06:23;;;;;;;16.65;7.58;;;;;;;2.65;83.12;98360.73;1586688;89;21089;-80
2021/12/09 11:08:53;;;;;;;17.52;7.60;;;;;;;2.66;82.19;98357.30;1599638;88;21084;-81
2021/12/09 11:11:45;;;;;;;15.13;7.30;;;;;;;2.71;81.68;98355.57;1606349;88;21552;-81
2021/12/09 11:14:20;;;;;;;20.62;8.35;;;;;;;2.73;82.34;98363.67;1606695;88;21559;-78
2021/12/09 11:16:52;;;;;;;15.65;7.08;;;;;;;2.81;82.51;98373.91;1607769;88;21086;-79
2021/12/09 11:22:11;;;;;;;20.35;9.23;;;;;;;2.89;82.78;98376.00;1596186;88;21146;-82
2021/12/09 11:24:43;;;;;;;18.77;9.18;;;;;;;2.91;82.81;98374.27;1600814;88;21062;-80
2021/12/09 11:27:16;;;;;;;19.73;9.23;;;;;;;2.91;82.04;98363.16;1589366;88;21039;-81
2021/12/09 11:29:51;;;;;;;18.15;8.98;;;;;;;2.93;82.14;98353.28;1596109;89;21007;-77
2021/12/09 11:32:35;;;;;;;28.77;11.53;;;;;;;2.88;81.66;98364.44;1591440;88;21336;-80
2021/12/09 11:35:16;;;;;;;21.12;10.20;;;;;;;2.82;80.63;98367.89;1599056;88;21055;-77
2021/12/09 11:38:20;;;;;;;19.95;10.28;;;;;;;2.79;81.66;98361.07;1594016;88;21091;-80
2021/12/09 11:40:48;;;;;;;24.77;8.50;;;;;;;2.78;81.32;98353.37;1586954;88;21543;-79
2021/12/09 11:43:20;;;;;;;21.95;9.75;;;;;;;2.82;81.78;98355.05;1597215;88;21531;-90
2021/12/09 11:45:49;;;;;;;21.60;9.78;;;;;;;2.78;81.44;98346.52;1602887;87;21069;-82
2021/12/09 11:48:17;;;;;;;18.87;8.35;;;;;;;2.71;81.53;98356.85;1597271;88;21475;-80
2021/12/09 11:50:50;;;;;;;20.20;9.43;;;;;;;2.69;81.28;98361.98;1591782;89;21094;-80